Time;durP1;ratioP1;P1;durP2;ratioP2;P2;SDS_P1;SDS_P2;PMS_P1;PMS_P2;Temp;Humidity;BMP_temperature;BMP_pressure;BME280_temperature;BME280_humidity;BME280_pressure;Samples;Min_cycle;Max_cycle;Signal;HPM_P1;HPM_P2
2022/09/05 00:00:08;;;;;;;6.10;2.50;;;17.70;99.90;;;;;;5014371;28;20174;-39
2022/09/05 00:03:18;;;;;;;4.63;2.20;;;17.60;99.90;;;;;;5014661;28;20201;-39
2022/09/05 00:05:54;;;;;;;3.00;2.13;;;17.60;99.90;;;;;;5014621;28;20170;-37
2022/09/05 00:08:26;;;;;;;4.43;2.67;;;17.50;99.90;;;;;;5014706;28;20158;-42
2022/09/05 00:11:04;;;;;;;6.47;2.53;;;17.50;99.90;;;;;;5014090;28;20293;-36
2022/09/05 00:13:40;;;;;;;2.83;2.47;;;17.40;99.90;;;;;;5014510;28;20170;-40
2022/09/05 00:16:24;;;;;;;4.10;2.50;;;17.40;99.90;;;;;;5014383;28;20165;-41
2022/09/05 00:19:23;;;;;;;4.03;2.50;;;17.40;99.90;;;;;;5014340;28;20174;-40
2022/09/05 00:22:27;;;;;;;3.37;2.60;;;17.40;99.90;;;;;;5014480;28;20607;-39
2022/09/05 00:25:08;;;;;;;4.77;2.77;;;17.30;99.90;;;;;;4996790;28;20212;-42
2022/09/05 00:27:36;;;;;;;4.03;2.33;;;17.20;99.90;;;;;;5014410;28;20185;-39
2022/09/05 00:30:12;;;;;;;3.47;2.70;;;17.00;99.90;;;;;;5014331;28;20235;-41
2022/09/05 00:32:54;;;;;;;3.57;2.57;;;17.00;99.90;;;;;;5013990;28;20212;-39
2022/09/05 00:35:40;;;;;;;4.30;2.20;;;16.90;99.90;;;;;;5014091;28;20591;-43
2022/09/05 00:38:13;;;;;;;3.10;2.30;;;16.90;99.90;;;;;;5013976;28;20189;-40
2022/09/05 00:40:44;;;;;;;2.87;2.27;;;16.90;99.90;;;;;;5013751;28;20722;-40
2022/09/05 00:43:18;;;;;;;7.13;2.50;;;16.90;99.90;;;;;;5013965;28;20173;-41
2022/09/05 00:45:51;;;;;;;3.63;2.10;;;16.90;99.90;;;;;;5013971;28;20547;-38
2022/09/05 00:48:35;;;;;;;3.83;2.13;;;16.90;99.90;;;;;;5013955;28;20231;-42
2022/09/05 00:51:24;;;;;;;5.67;2.37;;;16.80;99.90;;;;;;5013534;28;20572;-41
2022/09/05 00:53:58;;;;;;;3.17;2.30;;;16.80;99.90;;;;;;5013925;28;20205;-38
2022/09/05 00:57:01;;;;;;;4.40;2.30;;;16.80;99.90;;;;;;5014102;28;20165;-37
2022/09/05 00:59:48;;;;;;;6.10;2.43;;;16.70;99.90;;;;;;5013515;28;20181;-40
2022/09/05 01:02:40;;;;;;;4.77;2.20;;;16.70;99.90;;;;;;5013447;28;20251;-40
2022/09/05 01:05:30;;;;;;;3.37;2.50;;;16.70;99.90;;;;;;5013708;28;20166;-42
2022/09/05 01:08:17;;;;;;;2.80;2.40;;;16.60;99.90;;;;;;5013463;28;20174;-43
2022/09/05 01:11:07;;;;;;;3.20;2.50;;;16.60;99.90;;;;;;5013727;28;20215;-40
2022/09/05 01:13:57;;;;;;;4.90;2.50;;;16.50;99.90;;;;;;5014353;28;20166;-41
2022/09/05 01:16:27;;;;;;;6.27;2.90;;;16.50;99.90;;;;;;5014328;28;20166;-40
2022/09/05 01:19:04;;;;;;;4.73;2.63;;;16.40;99.90;;;;;;5013488;28;20170;-41
2022/09/05 01:21:48;;;;;;;3.73;2.67;;;16.40;99.90;;;;;;5013608;28;20739;-41
2022/09/05 01:24:23;;;;;;;5.07;3.13;;;16.30;99.90;;;;;;5013604;28;20174;-39
2022/09/05 01:27:26;;;;;;;4.33;2.67;;;16.30;99.90;;;;;;5013554;28;20173;-39
2022/09/05 01:30:02;;;;;;;2.63;2.43;;;16.30;99.90;;;;;;5013235;28;20181;-40
2022/09/05 01:32:34;;;;;;;3.87;2.70;;;16.20;99.90;;;;;;5013206;28;20581;-40
2022/09/05 01:35:27;;;;;;;2.87;2.30;;;16.20;99.90;;;;;;5013204;28;20174;-41
2022/09/05 01:38:29;;;;;;;3.73;2.90;;;16.10;99.90;;;;;;5013491;28;20177;-40
2022/09/05 01:41:20;;;;;;;3.37;2.80;;;16.10;99.90;;;;;;5013316;28;20636;-40
2022/09/05 01:44:04;;;;;;;3.40;2.83;;;16.10;99.90;;;;;;5013366;28;20177;-40
2022/09/05 01:46:49;;;;;;;3.47;2.83;;;16.10;99.90;;;;;;5013500;28;20162;-39
2022/09/05 01:49:35;;;;;;;4.27;2.70;;;16.10;99.90;;;;;;5016828;28;20166;-41
2022/09/05 01:52:25;;;;;;;4.50;2.90;;;16.10;99.90;;;;;;5017067;28;20296;-40
2022/09/05 01:55:11;;;;;;;3.20;2.90;;;16.00;99.90;;;;;;5018379;28;20158;-39
2022/09/05 01:57:50;;;;;;;3.47;2.70;;;15.90;99.90;;;;;;5016744;28;20162;-41
2022/09/05 02:01:02;;;;;;;6.47;3.17;;;15.90;99.90;;;;;;5016680;28;20216;-40
2022/09/05 02:03:41;;;;;;;5.50;2.73;;;15.90;99.90;;;;;;5013647;28;20529;-40
2022/09/05 02:06:25;;;;;;;5.83;2.70;;;15.90;99.90;;;;;;5016875;28;20157;-41
2022/09/05 02:09:17;;;;;;;3.83;3.20;;;15.90;99.90;;;;;;5017119;28;20162;-40
2022/09/05 02:11:44;;;;;;;3.83;2.73;;;15.80;99.90;;;;;;5016885;28;20564;-42
2022/09/05 02:14:18;;;;;;;3.70;2.97;;;15.80;99.90;;;;;;5016957;28;20193;-42
2022/09/05 02:16:44;;;;;;;5.40;2.90;;;15.80;99.90;;;;;;5016458;28;20708;-39
2022/09/05 02:19:15;;;;;;;3.03;2.57;;;15.80;99.90;;;;;;5016711;28;20260;-41
2022/09/05 02:21:53;;;;;;;3.93;2.80;;;15.80;99.90;;;;;;5016872;28;20202;-38
2022/09/05 02:24:27;;;;;;;3.63;2.67;;;15.70;99.90;;;;;;5016320;28;20708;-38
2022/09/05 02:27:18;;;;;;;3.90;2.80;;;15.70;99.90;;;;;;5016346;28;20177;-40
2022/09/05 02:30:04;;;;;;;5.93;3.03;;;15.70;99.90;;;;;;5016061;28;20170;-41
2022/09/05 02:32:54;;;;;;;3.93;2.70;;;15.60;99.90;;;;;;5016123;28;20213;-39
2022/09/05 02:35:38;;;;;;;3.40;2.47;;;15.60;99.90;;;;;;5016338;28;20249;-39
2022/09/05 02:38:10;;;;;;;2.83;2.37;;;15.60;99.90;;;;;;5015998;28;20688;-39
2022/09/05 02:40:36;;;;;;;2.90;2.53;;;15.50;99.90;;;;;;5016173;28;20165;-40
2022/09/05 02:43:41;;;;;;;4.23;2.73;;;15.50;99.90;;;;;;5015704;28;20566;-38
2022/09/05 02:46:13;;;;;;;4.03;3.00;;;15.50;99.90;;;;;;5015072;28;20226;-39
2022/09/05 02:49:04;;;;;;;4.17;2.33;;;15.40;99.90;;;;;;5015988;28;20320;-40
2022/09/05 02:51:41;;;;;;;3.20;2.73;;;15.40;99.90;;;;;;5015801;28;20229;-39
2022/09/05 02:54:22;;;;;;;3.07;2.37;;;15.40;99.90;;;;;;5015708;28;20260;-37
2022/09/05 02:56:53;;;;;;;3.37;2.20;;;15.30;99.90;;;;;;5015818;28;20195;-39
2022/09/05 02:59:38;;;;;;;5.07;2.77;;;15.30;99.90;;;;;;5014640;28;20170;-37
2022/09/05 03:02:14;;;;;;;3.73;2.40;;;15.20;99.90;;;;;;5015406;28;20243;-40
2022/09/05 03:05:07;;;;;;;4.33;2.60;;;15.20;99.90;;;;;;5015385;28;20265;-38
2022/09/05 03:07:55;;;;;;;5.97;2.43;;;15.20;99.90;;;;;;5015466;28;20185;-38
2022/09/05 03:11:00;;;;;;;2.60;2.40;;;15.10;99.90;;;;;;5015291;28;20645;-38
2022/09/05 03:14:02;;;;;;;3.47;2.47;;;15.10;99.90;;;;;;4975694;28;20641;-40
2022/09/05 03:16:56;;;;;;;2.63;2.17;;;15.00;99.90;;;;;;5015559;28;20169;-38
2022/09/05 03:19:40;;;;;;;2.57;2.37;;;15.00;99.90;;;;;;5015477;28;20261;-40
2022/09/05 03:22:12;;;;;;;3.03;2.30;;;15.00;99.90;;;;;;5015331;28;20565;-39
2022/09/05 03:25:16;;;;;;;3.13;2.23;;;14.90;99.90;;;;;;5015161;28;20162;-38
2022/09/05 03:28:12;;;;;;;4.53;2.13;;;14.90;99.90;;;;;;4944908;28;20203;-38
2022/09/05 03:30:47;;;;;;;2.70;2.10;;;14.90;99.90;;;;;;5015266;28;20328;-40
2022/09/05 03:33:40;;;;;;;3.40;2.60;;;14.90;99.90;;;;;;5015478;28;20188;-40
2022/09/05 03:36:27;;;;;;;4.53;2.30;;;14.80;99.90;;;;;;5015163;28;20157;-42
2022/09/05 03:39:18;;;;;;;4.03;2.87;;;14.80;99.90;;;;;;5015120;28;20648;-42
2022/09/05 03:41:44;;;;;;;3.87;2.47;;;14.80;99.90;;;;;;5014848;28;20205;-41
2022/09/05 03:44:38;;;;;;;5.67;2.23;;;14.80;99.90;;;;;;5014735;28;20188;-39
2022/09/05 03:47:36;;;;;;;8.03;2.53;;;14.80;99.90;;;;;;5014961;28;20174;-41
2022/09/05 03:50:23;;;;;;;4.73;2.40;;;14.70;99.90;;;;;;5014792;28;20224;-40
2022/09/05 03:53:03;;;;;;;4.53;2.63;;;14.70;99.90;;;;;;5014598;28;20201;-40
2022/09/05 03:55:53;;;;;;;3.50;2.30;;;14.70;99.90;;;;;;5014784;28;20681;-40
2022/09/05 03:58:39;;;;;;;2.53;2.30;;;14.60;99.90;;;;;;5014767;28;20216;-42
2022/09/05 04:01:13;;;;;;;3.77;2.57;;;14.60;99.90;;;;;;5014617;28;20202;-41
2022/09/05 04:04:11;;;;;;;4.53;2.40;;;14.50;99.90;;;;;;5014850;28;20198;-42
2022/09/05 04:06:50;;;;;;;4.83;2.27;;;14.50;99.90;;;;;;5000039;28;20557;-40
2022/09/05 04:09:27;;;;;;;2.87;2.20;;;14.50;99.90;;;;;;5015357;28;20617;-41
2022/09/05 04:11:59;;;;;;;5.77;3.03;;;14.40;99.90;;;;;;5015165;28;20335;-40
2022/09/05 04:14:39;;;;;;;2.50;2.30;;;14.40;99.90;;;;;;5016002;28;20180;-40
2022/09/05 04:17:21;;;;;;;6.70;2.40;;;14.40;99.90;;;;;;5017607;28;20161;-39
2022/09/05 04:20:03;;;;;;;4.07;2.60;;;14.40;99.90;;;;;;5017759;28;20176;-41
2022/09/05 04:22:37;;;;;;;4.27;2.20;;;14.40;99.90;;;;;;5017231;28;20206;-40
2022/09/05 04:25:20;;;;;;;5.33;2.60;;;14.40;99.90;;;;;;5016837;28;20185;-40
2022/09/05 04:27:49;;;;;;;2.60;2.13;;;14.40;99.90;;;;;;5015817;28;20535;-38
2022/09/05 04:30:25;;;;;;;3.87;2.80;;;14.40;99.90;;;;;;5014283;28;20209;-41
2022/09/05 04:33:34;;;;;;;4.67;2.30;;;14.30;99.90;;;;;;5014367;28;20251;-40
2022/09/05 04:36:11;;;;;;;3.90;2.53;;;14.30;99.90;;;;;;5014176;28;20556;-40
2022/09/05 04:38:43;;;;;;;5.07;2.60;;;14.30;99.90;;;;;;5014374;28;20165;-42
2022/09/05 04:41:18;;;;;;;2.60;2.27;;;14.30;99.90;;;;;;5014286;28;20201;-40
2022/09/05 04:43:50;;;;;;;4.93;2.57;;;14.30;99.90;;;;;;5014054;28;20203;-40
2022/09/05 04:46:24;;;;;;;3.20;2.67;;;14.20;99.90;;;;;;5014035;28;20626;-40
2022/09/05 04:49:26;;;;;;;4.13;2.23;;;14.30;99.90;;;;;;5014320;28;20212;-42
2022/09/05 04:52:29;;;;;;;4.50;2.80;;;14.20;99.90;;;;;;5002170;28;20304;-43
2022/09/05 04:55:14;;;;;;;3.30;2.30;;;14.20;99.90;;;;;;5014115;28;20177;-38
2022/09/05 04:58:00;;;;;;;3.20;2.50;;;14.20;99.90;;;;;;5013970;28;20166;-40
2022/09/05 05:00:54;;;;;;;5.23;2.50;;;14.20;99.90;;;;;;5013984;28;20177;-41
2022/09/05 05:03:32;;;;;;;4.73;2.50;;;14.20;99.90;;;;;;5013908;28;20676;-41
2022/09/05 05:06:10;;;;;;;5.93;2.43;;;14.10;99.90;;;;;;5013620;28;20173;-41
2022/09/05 05:08:44;;;;;;;4.43;2.00;;;14.10;99.90;;;;;;5013910;28;20641;-38
2022/09/05 05:11:30;;;;;;;2.97;2.30;;;14.10;99.90;;;;;;5015473;28;20215;-39
2022/09/05 05:14:01;;;;;;;7.50;2.63;;;14.10;99.90;;;;;;5013382;28;20217;-41
2022/09/05 05:16:36;;;;;;;2.57;2.37;;;14.20;99.90;;;;;;5013662;28;20549;-39
2022/09/05 05:19:10;;;;;;;6.17;2.93;;;14.10;99.90;;;;;;5013651;28;20164;-39
2022/09/05 05:21:35;;;;;;;8.70;2.80;;;14.10;99.90;;;;;;5013591;28;20542;-40
2022/09/05 05:24:14;;;;;;;4.57;2.80;;;14.10;99.90;;;;;;5017049;28;20216;-38
2022/09/05 05:26:47;;;;;;;5.47;2.80;;;14.10;99.90;;;;;;5017647;28;20181;-39
2022/09/05 05:29:51;;;;;;;2.50;2.27;;;14.10;99.90;;;;;;5017725;28;20185;-41
2022/09/05 05:32:45;;;;;;;2.87;2.57;;;14.20;99.90;;;;;;4999631;28;20220;-38
2022/09/05 05:35:14;;;;;;;3.97;2.77;;;14.10;99.90;;;;;;5014494;28;20248;-40
2022/09/05 05:37:51;;;;;;;6.87;2.70;;;14.20;99.90;;;;;;5017002;28;20195;-40
2022/09/05 05:40:28;;;;;;;8.37;2.20;;;14.20;99.90;;;;;;5017347;28;20164;-39
2022/09/05 05:43:16;;;;;;;7.57;2.37;;;14.30;99.90;;;;;;5018146;28;20201;-44
2022/09/05 05:45:42;;;;;;;3.23;2.30;;;14.30;99.90;;;;;;5020384;28;20196;-44
2022/09/05 05:48:38;;;;;;;5.27;2.80;;;14.50;99.90;;;;;;5020491;28;20177;-44
2022/09/05 05:51:32;;;;;;;4.43;2.60;;;14.50;99.90;;;;;;5020268;28;20278;-45
2022/09/05 05:54:14;;;;;;;2.90;2.40;;;14.60;99.90;;;;;;5020114;28;20182;-45
2022/09/05 05:57:01;;;;;;;5.80;3.27;;;14.70;99.90;;;;;;5021210;28;20166;-44
2022/09/05 05:59:53;;;;;;;4.00;2.67;;;14.80;99.90;;;;;;5020597;28;20166;-43
2022/09/05 06:02:47;;;;;;;3.43;2.67;;;14.90;99.90;;;;;;4990810;28;20214;-44
2022/09/05 06:05:29;;;;;;;7.93;2.40;;;15.00;99.90;;;;;;5003177;28;20192;-45
2022/09/05 06:08:15;;;;;;;3.33;2.43;;;15.10;99.90;;;;;;5020157;28;20169;-45
2022/09/05 06:11:17;;;;;;;5.17;2.47;;;15.20;99.90;;;;;;5020238;28;20170;-46
2022/09/05 06:14:05;;;;;;;6.70;2.50;;;15.30;99.90;;;;;;5020581;28;20171;-44
2022/09/05 06:16:48;;;;;;;9.57;2.93;;;15.40;99.90;;;;;;5019570;28;20158;-43
2022/09/05 06:19:40;;;;;;;4.03;2.60;;;15.50;99.90;;;;;;5020161;28;20170;-42
2022/09/05 06:22:32;;;;;;;7.17;2.67;;;15.70;99.90;;;;;;5019988;28;20673;-43
2022/09/05 06:25:00;;;;;;;4.77;2.80;;;15.80;99.90;;;;;;5019506;28;20222;-45
2022/09/05 06:27:51;;;;;;;5.90;2.70;;;15.90;99.90;;;;;;5019430;28;20185;-44
2022/09/05 06:30:20;;;;;;;3.77;2.40;;;16.10;99.90;;;;;;5019704;28;20206;-44
2022/09/05 06:33:03;;;;;;;3.40;3.10;;;16.20;99.90;;;;;;5019154;28;20541;-44
2022/09/05 06:35:45;;;;;;;6.03;2.93;;;16.40;99.90;;;;;;5021611;28;20165;-44
2022/09/05 06:38:41;;;;;;;5.10;2.50;;;16.50;99.90;;;;;;5019872;28;20245;-45
2022/09/05 06:41:51;;;;;;;4.97;2.43;;;16.60;99.90;;;;;;5020287;28;20201;-45
2022/09/05 06:44:36;;;;;;;4.97;2.33;;;16.80;99.90;;;;;;4982697;28;20200;-44
2022/09/05 06:47:11;;;;;;;4.10;2.67;;;17.00;99.90;;;;;;5019059;28;20150;-44
2022/09/05 06:50:13;;;;;;;3.07;2.60;;;17.10;99.90;;;;;;5020084;28;20189;-45
2022/09/05 06:52:53;;;;;;;4.00;2.50;;;17.30;99.90;;;;;;5019323;28;20208;-46
2022/09/05 06:55:46;;;;;;;3.33;2.50;;;17.50;99.90;;;;;;5019333;28;20223;-45
2022/09/05 06:58:49;;;;;;;2.60;2.13;;;17.70;99.90;;;;;;5020013;28;20634;-45
2022/09/05 07:01:26;;;;;;;5.10;2.47;;;17.90;99.90;;;;;;4949497;28;20220;-45
2022/09/05 07:04:39;;;;;;;3.93;1.97;;;18.10;99.90;;;;;;5020199;28;20232;-45
2022/09/05 07:07:25;;;;;;;3.10;2.23;;;18.30;99.90;;;;;;5002325;28;20208;-45
2022/09/05 07:10:03;;;;;;;2.63;2.20;;;18.60;99.90;;;;;;5020391;28;20166;-45
2022/09/05 07:12:52;;;;;;;9.17;2.57;;;18.80;99.90;;;;;;5018507;28;20232;-45
2022/09/05 07:15:52;;;;;;;4.80;2.13;;;19.00;99.90;;;;;;5019712;28;20162;-44
2022/09/05 07:18:42;;;;;;;4.37;2.50;;;19.30;99.90;;;;;;5019585;28;20244;-44
2022/09/05 07:21:29;;;;;;;3.93;1.93;;;19.50;99.90;;;;;;5020049;28;20213;-44
2022/09/05 07:24:02;;;;;;;4.60;2.00;;;19.70;99.90;;;;;;5019470;28;20261;-43
2022/09/05 07:26:32;;;;;;;3.30;3.00;;;19.80;99.90;;;;;;5016346;28;20677;-45
2022/09/05 07:29:04;;;;;;;7.30;2.00;;;20.00;99.90;;;;;;5015286;28;20180;-42
2022/09/05 07:31:34;;;;;;;3.57;1.83;;;20.20;99.90;;;;;;5016571;28;20656;-45
2022/09/05 07:34:30;;;;;;;7.50;2.10;;;20.30;99.90;;;;;;5019278;28;20201;-44
2022/09/05 07:37:00;;;;;;;6.37;2.13;;;20.50;99.90;;;;;;5002874;28;20190;-43
2022/09/05 07:39:30;;;;;;;2.13;1.90;;;20.70;99.90;;;;;;5018729;28;20185;-44
2022/09/05 07:42:01;;;;;;;4.93;1.83;;;20.80;99.90;;;;;;5019000;28;20661;-45
2022/09/05 07:44:34;;;;;;;5.07;2.00;;;21.00;99.90;;;;;;5019991;28;20170;-43
2022/09/05 07:47:24;;;;;;;3.43;1.90;;;21.20;99.90;;;;;;5019579;28;20657;-44
2022/09/05 07:49:52;;;;;;;3.27;2.00;;;21.30;99.90;;;;;;5020898;28;20205;-45
2022/09/05 07:52:21;;;;;;;3.50;1.87;;;21.40;99.90;;;;;;5020535;28;20205;-44
2022/09/05 07:54:51;;;;;;;3.33;2.00;;;21.70;99.90;;;;;;5020750;28;20577;-45
2022/09/05 07:57:21;;;;;;;3.50;1.90;;;21.80;99.90;;;;;;5021744;28;20173;-44
2022/09/05 07:59:51;;;;;;;2.47;1.70;;;21.90;99.90;;;;;;5021840;28;20517;-46
2022/09/05 08:02:17;;;;;;;2.40;1.90;;;22.10;99.90;;;;;;5021742;28;20219;-45
2022/09/05 08:04:43;;;;;;;5.57;1.60;;;22.20;99.90;;;;;;5019799;28;20712;-38
2022/09/05 08:07:34;;;;;;;3.00;1.93;;;22.40;99.90;;;;;;5014351;28;20213;-41
2022/09/05 08:10:06;;;;;;;2.90;1.67;;;22.60;99.90;;;;;;5014613;28;20201;-38
2022/09/05 08:12:46;;;;;;;4.67;2.13;;;22.70;99.90;;;;;;5014442;28;20612;-39
2022/09/05 08:15:17;;;;;;;4.43;1.60;;;22.90;99.90;;;;;;5014481;28;20231;-38
2022/09/05 08:17:46;;;;;;;3.50;1.80;;;23.00;99.90;;;;;;5014510;28;20166;-41
2022/09/05 08:20:46;;;;;;;3.23;1.83;;;23.10;99.90;;;;;;5014360;28;20177;-38
2022/09/05 08:23:23;;;;;;;3.13;1.70;;;23.20;99.90;;;;;;4970470;28;20646;-40
2022/09/05 08:25:58;;;;;;;5.47;1.50;;;23.40;99.90;;;;;;5013996;28;20150;-39
2022/09/05 08:28:33;;;;;;;4.87;1.73;;;23.60;99.90;;;;;;5014526;28;20238;-39
2022/09/05 08:31:05;;;;;;;9.07;1.60;;;23.70;99.90;;;;;;5014077;28;20172;-40
2022/09/05 08:33:34;;;;;;;5.60;1.77;;;23.90;99.90;;;;;;5014145;28;20162;-39
2022/09/05 08:36:27;;;;;;;3.03;1.77;;;24.00;99.90;;;;;;5014082;28;20215;-40
2022/09/05 08:38:55;;;;;;;4.27;1.80;;;24.10;99.90;;;;;;5013811;28;20190;-43
2022/09/05 08:41:36;;;;;;;3.67;1.60;;;24.20;99.90;;;;;;5014745;28;20225;-41
2022/09/05 08:44:16;;;;;;;3.07;1.60;;;24.40;99.90;;;;;;5014634;28;20166;-41
2022/09/05 08:47:06;;;;;;;5.80;1.57;;;24.50;99.90;;;;;;5013896;28;20170;-41
2022/09/05 08:49:51;;;;;;;8.63;1.60;;;24.60;99.90;;;;;;5013749;28;20221;-39
2022/09/05 08:52:43;;;;;;;2.90;1.40;;;24.80;99.90;;;;;;4996305;28;20209;-40
2022/09/05 08:55:22;;;;;;;3.60;1.53;;;24.90;99.90;;;;;;5013766;28;20212;-41
2022/09/05 08:58:03;;;;;;;1.70;1.30;;;25.00;99.90;;;;;;5012252;28;20212;-40
2022/09/05 09:00:37;;;;;;;2.07;1.40;;;25.20;99.90;;;;;;5013884;28;20240;-41
2022/09/05 09:03:20;;;;;;;6.47;1.30;;;25.30;99.90;;;;;;5013844;28;20272;-42
2022/09/05 09:05:54;;;;;;;5.93;1.67;;;25.40;99.90;;;;;;5013861;28;20676;-40
2022/09/05 09:08:55;;;;;;;5.83;1.50;;;25.60;99.90;;;;;;5013777;28;20224;-40
2022/09/05 09:11:31;;;;;;;2.67;1.77;;;25.70;99.90;;;;;;4996095;28;20264;-40
2022/09/05 09:14:34;;;;;;;6.13;1.67;;;26.00;99.90;;;;;;5013872;28;20169;-40
2022/09/05 09:17:18;;;;;;;5.93;1.70;;;26.10;99.90;;;;;;5013449;28;20170;-42
2022/09/05 09:19:46;;;;;;;6.77;1.70;;;26.30;99.90;;;;;;5013500;28;20177;-39
2022/09/05 09:22:31;;;;;;;13.47;1.67;;;26.30;99.90;;;;;;5013581;28;20197;-39
2022/09/05 09:25:08;;;;;;;7.87;1.50;;;26.50;99.90;;;;;;5013405;28;20244;-40
2022/09/05 09:27:53;;;;;;;2.73;1.33;;;26.60;99.90;;;;;;5013569;28;20584;-41
2022/09/05 09:30:19;;;;;;;4.30;1.33;;;26.70;99.90;;;;;;5013483;28;20178;-40
2022/09/05 09:32:48;;;;;;;5.17;1.53;;;26.90;99.90;;;;;;5013415;28;20206;-41
2022/09/05 09:35:25;;;;;;;3.20;1.27;;;27.00;99.90;;;;;;5013307;28;20181;-41
2022/09/05 09:38:03;;;;;;;3.50;1.40;;;27.10;99.90;;;;;;5013230;28;20178;-40
2022/09/05 09:41:02;;;;;;;4.27;1.20;;;27.30;99.90;;;;;;5013877;28;20570;-40
2022/09/05 09:43:49;;;;;;;2.63;1.10;;;27.40;99.90;;;;;;5013259;28;20618;-40
2022/09/05 09:46:44;;;;;;;4.90;1.00;;;27.60;99.90;;;;;;5013276;28;20645;-39
2022/09/05 09:49:19;;;;;;;3.43;0.80;;;27.70;99.90;;;;;;5013090;28;20181;-44
2022/09/05 09:52:11;;;;;;;1.67;1.00;;;27.80;98.60;;;;;;5013312;28;20217;-44
2022/09/05 09:54:45;;;;;;;1.67;1.10;;;28.00;98.90;;;;;;5013307;28;20507;-44
2022/09/05 09:57:45;;;;;;;0.80;0.80;;;28.10;97.70;;;;;;5013043;28;20574;-46
2022/09/05 10:00:21;;;;;;;1.83;0.80;;;28.20;96.70;;;;;;5013332;28;20158;-45
2022/09/05 10:03:23;;;;;;;2.00;1.20;;;28.30;95.30;;;;;;5013384;28;20634;-45
2022/09/05 10:06:08;;;;;;;1.10;0.73;;;28.50;96.50;;;;;;4947818;28;20217;-45
2022/09/05 10:09:21;;;;;;;1.17;0.83;;;28.50;96.00;;;;;;5013901;28;20200;-45
2022/09/05 10:12:19;;;;;;;0.93;0.70;;;28.70;94.80;;;;;;4972532;28;20312;-47
2022/09/05 10:15:11;;;;;;;1.67;1.00;;;28.70;94.80;;;;;;5016798;28;20600;-45
2022/09/05 10:17:50;;;;;;;1.43;0.90;;;28.90;96.20;;;;;;5016796;28;20564;-45
2022/09/05 10:20:48;;;;;;;2.40;1.00;;;28.90;94.10;;;;;;5016726;28;20197;-46
2022/09/05 10:23:59;;;;;;;1.60;0.93;;;28.90;94.90;;;;;;5017162;28;20201;-46
2022/09/05 10:26:52;;;;;;;7.27;1.83;;;28.90;95.60;;;;;;4972538;28;20201;-45
2022/09/05 10:29:39;;;;;;;1.37;1.10;;;28.90;96.40;;;;;;5016473;28;20200;-44
2022/09/05 10:32:11;;;;;;;1.80;0.73;;;28.90;96.60;;;;;;5016442;28;20220;-46
2022/09/05 10:35:18;;;;;;;3.40;1.20;;;29.00;96.80;;;;;;5016579;28;20169;-45
2022/09/05 10:37:53;;;;;;;2.30;1.40;;;29.00;92.60;;;;;;5015525;28;20193;-45
2022/09/05 10:40:23;;;;;;;4.40;1.50;;;29.00;94.30;;;;;;5016127;28;20610;-43
2022/09/05 10:42:58;;;;;;;2.23;1.30;;;29.10;92.40;;;;;;4998460;28;20209;-42
2022/09/05 10:45:44;;;;;;;3.67;1.15;;;29.10;91.10;;;;;;5016816;28;20174;-44
2022/09/05 10:48:28;;;;;;;3.63;1.00;;;29.20;92.50;;;;;;5016200;28;20213;-44
2022/09/05 10:51:05;;;;;;;2.35;1.15;;;29.30;94.30;;;;;;4998447;28;20232;-42
2022/09/05 10:54:00;;;;;;;4.00;1.05;;;29.50;92.60;;;;;;5016559;28;20178;-43
2022/09/05 10:56:33;;;;;;;3.38;1.00;;;29.60;92.60;;;;;;5015926;28;20227;-42
2022/09/05 10:59:03;;;;;;;1.50;0.90;;;29.70;92.50;;;;;;5016342;28;20219;-45
2022/09/05 11:01:48;;;;;;;1.63;0.77;;;29.80;94.00;;;;;;5015608;28;20198;-43
2022/09/05 11:04:40;;;;;;;1.85;0.90;;;29.90;94.70;;;;;;5015923;28;20618;-45
2022/09/05 11:07:16;;;;;;;1.40;0.93;;;30.00;93.40;;;;;;5015673;28;20213;-43
2022/09/05 11:09:53;;;;;;;1.23;0.88;;;30.10;93.60;;;;;;5015684;28;20169;-42
2022/09/05 11:12:56;;;;;;;1.05;0.82;;;30.20;92.50;;;;;;5015524;28;20628;-42
2022/09/05 11:16:06;;;;;;;2.30;1.08;;;30.30;92.90;;;;;;5015730;28;20264;-45
2022/09/05 11:19:02;;;;;;;1.10;0.90;;;30.30;93.10;;;;;;5014132;28;20233;-44
2022/09/05 11:21:49;;;;;;;1.63;1.25;;;30.50;89.20;;;;;;5014200;28;20227;-43
2022/09/05 11:24:32;;;;;;;1.60;0.98;;;30.40;88.40;;;;;;5015234;28;20173;-44
2022/09/05 11:27:18;;;;;;;6.63;1.20;;;30.30;85.50;;;;;;5015138;28;20280;-45
2022/09/05 11:29:47;;;;;;;1.90;0.98;;;30.10;85.30;;;;;;5015329;28;20177;-45
2022/09/05 11:32:41;;;;;;;4.10;1.20;;;30.10;84.40;;;;;;5014964;28;20247;-43
2022/09/05 11:35:25;;;;;;;1.55;0.88;;;30.00;83.60;;;;;;5015046;28;20240;-43
2022/09/05 11:38:22;;;;;;;1.50;0.95;;;30.10;87.70;;;;;;5015229;28;20178;-43
2022/09/05 11:41:28;;;;;;;0.88;0.85;;;30.30;90.30;;;;;;5014998;28;20193;-43
2022/09/05 11:44:18;;;;;;;3.83;1.10;;;30.60;91.30;;;;;;5015121;28;20186;-44
2022/09/05 11:47:33;;;;;;;2.25;1.00;;;30.90;89.20;;;;;;5014851;28;20169;-43
2022/09/05 11:50:26;;;;;;;2.25;1.02;;;31.00;91.40;;;;;;5015255;28;20601;-45
2022/09/05 11:53:32;;;;;;;1.45;1.10;;;31.00;88.20;;;;;;5015146;28;20206;-41
2022/09/05 11:56:03;;;;;;;1.25;1.13;;;31.00;86.40;;;;;;5014593;28;20185;-44
2022/09/05 11:58:55;;;;;;;1.42;1.25;;;31.10;92.30;;;;;;5014910;28;20170;-44
2022/09/05 12:01:56;;;;;;;1.65;0.98;;;31.30;92.00;;;;;;5014784;28;20201;-41
2022/09/05 12:04:49;;;;;;;1.25;1.00;;;31.40;90.10;;;;;;5014776;28;20511;-44
2022/09/05 12:08:00;;;;;;;3.70;1.00;;;31.50;88.90;;;;;;5014562;28;20216;-43
2022/09/05 12:10:57;;;;;;;1.15;0.90;;;31.30;84.40;;;;;;5014568;28;20165;-42
2022/09/05 12:13:47;;;;;;;5.68;1.27;;;31.30;89.00;;;;;;5014799;28;20587;-45
2022/09/05 12:16:54;;;;;;;2.15;0.90;;;31.40;90.70;;;;;;5014414;28;20224;-45
2022/09/05 12:19:32;;;;;;;1.35;0.80;;;31.60;92.00;;;;;;5013392;28;20193;-45
2022/09/05 12:22:31;;;;;;;1.02;0.95;;;31.70;89.80;;;;;;5014074;28;20792;-44
2022/09/05 12:25:20;;;;;;;4.68;1.10;;;31.80;86.20;;;;;;5014515;28;20178;-45
2022/09/05 12:27:53;;;;;;;2.05;0.70;;;31.90;74.40;;;;;;5015148;28;20272;-43
2022/09/05 12:30:26;;;;;;;1.27;0.90;;;31.70;76.30;;;;;;5014496;28;20257;-43
2022/09/05 12:32:57;;;;;;;3.28;1.13;;;31.60;71.40;;;;;;5013951;28;20259;-43
2022/09/05 12:35:41;;;;;;;3.63;1.02;;;31.50;72.30;;;;;;5013958;28;20180;-43
2022/09/05 12:38:34;;;;;;;1.13;1.00;;;31.40;71.00;;;;;;5014020;28;20173;-43
2022/09/05 12:41:10;;;;;;;2.60;1.00;;;31.10;71.70;;;;;;5013877;28;20557;-44
2022/09/05 12:43:42;;;;;;;1.08;0.93;;;30.90;70.70;;;;;;5014187;28;20260;-44
2022/09/05 12:46:31;;;;;;;2.80;0.90;;;30.90;71.10;;;;;;5013981;28;20173;-45
2022/09/05 12:49:09;;;;;;;2.15;1.02;;;31.00;72.30;;;;;;5014140;28;20166;-46
2022/09/05 12:51:45;;;;;;;1.88;1.00;;;31.00;71.90;;;;;;5013913;28;20223;-43
2022/09/05 12:54:24;;;;;;;1.88;1.10;;;31.20;75.90;;;;;;5013979;28;20161;-42
2022/09/05 12:57:11;;;;;;;1.60;1.00;;;31.50;81.80;;;;;;5013618;28;20318;-45
2022/09/05 12:59:39;;;;;;;2.67;0.85;;;31.80;78.80;;;;;;5014365;28;20173;-45
2022/09/05 13:02:14;;;;;;;1.10;1.00;;;31.90;84.30;;;;;;5013849;28;20284;-45
2022/09/05 13:04:56;;;;;;;1.83;1.00;;;32.00;79.50;;;;;;5014406;28;20553;-44
2022/09/05 13:07:55;;;;;;;4.20;1.25;;;31.90;69.40;;;;;;5014910;28;20158;-44
2022/09/05 13:10:38;;;;;;;2.38;1.02;;;31.70;75.90;;;;;;4997075;28;20200;-43
2022/09/05 13:13:22;;;;;;;1.23;1.08;;;31.60;71.50;;;;;;5013445;28;20217;-45
2022/09/05 13:15:52;;;;;;;2.42;0.93;;;31.50;70.50;;;;;;5013509;28;20166;-44
2022/09/05 13:18:22;;;;;;;2.13;1.20;;;31.30;75.60;;;;;;5013662;28;20174;-44
2022/09/05 13:21:04;;;;;;;1.10;1.00;;;31.40;74.00;;;;;;5013882;28;20165;-44
2022/09/05 13:24:00;;;;;;;3.70;1.10;;;31.30;71.30;;;;;;5013659;28;20185;-45
2022/09/05 13:27:07;;;;;;;3.33;1.13;;;31.30;74.70;;;;;;5013893;28;20212;-45
2022/09/05 13:29:53;;;;;;;2.65;0.75;;;31.50;71.90;;;;;;5013404;28;20177;-44
2022/09/05 13:32:32;;;;;;;5.93;1.02;;;31.50;75.00;;;;;;5013176;28;20289;-43
2022/09/05 13:35:11;;;;;;;1.55;0.90;;;31.50;75.00;;;;;;5013611;28;20169;-44
2022/09/05 13:37:43;;;;;;;3.33;1.20;;;31.60;80.00;;;;;;5013507;28;20193;-43
2022/09/05 13:40:09;;;;;;;2.05;1.02;;;31.80;75.30;;;;;;5013705;28;20193;-44
2022/09/05 13:42:43;;;;;;;0.95;0.90;;;31.90;78.70;;;;;;5013127;28;20197;-44
2022/09/05 13:45:17;;;;;;;1.40;0.98;;;32.00;81.20;;;;;;5015288;28;20181;-43
2022/09/05 13:48:04;;;;;;;1.27;0.88;;;32.10;75.50;;;;;;5017081;28;20161;-44
2022/09/05 13:50:37;;;;;;;2.25;0.80;;;32.20;71.90;;;;;;5017063;28;20591;-45
2022/09/05 13:53:05;;;;;;;2.35;1.00;;;32.20;77.60;;;;;;5016838;28;20709;-44
2022/09/05 13:55:52;;;;;;;1.40;1.00;;;32.40;77.90;;;;;;5017059;28;20177;-45
2022/09/05 13:58:21;;;;;;;2.83;1.00;;;32.50;82.60;;;;;;5017136;28;20567;-44
2022/09/05 14:01:10;;;;;;;1.83;0.98;;;32.70;83.30;;;;;;5016644;28;20176;-44
2022/09/05 14:03:59;;;;;;;5.90;1.00;;;32.80;84.10;;;;;;5017340;28;20253;-44
2022/09/05 14:07:04;;;;;;;5.10;1.10;;;33.00;84.00;;;;;;5016938;28;20162;-44
2022/09/05 14:10:09;;;;;;;2.10;0.85;;;33.20;84.40;;;;;;5017126;28;20205;-45
2022/09/05 14:12:57;;;;;;;1.33;1.02;;;33.20;73.90;;;;;;4998868;28;20673;-44